Loging...

KPDC, Korea Polar Data Center

Korea Polar Data Center Scientific observations and results from Antarctica shall
be exchanged and made freely available

Keyword Search

Advanced Search

Search 122 data out of 28,365

Metadata Search Results1
No. Title Reg. Date
1 [KOPRI-KPDC-00001406] Black Carbon data at Cambridge Bay station in 2019 2019-11-13
2 [KOPRI-KPDC-00000881]CO2 auto-chamber data of Council site in 2017 2017-12-05
3 [KOPRI-KPDC-00000860]Black Carbon data at Cambridge Bay station 2017-11-27
4 [KOPRI-KPDC-00000694]Black Carbon data at Cambridge Bay station 2016-11-30
5 [KOPRI-KPDC-00000686]CO2 auto-chamber data of Council site in 2015 2016-11-25
6 [KOPRI-KPDC-00000683]CO2 auto-chamber data of Council site in 2011 2016-11-25
7 [KOPRI-KPDC-00000687]CO2 auto-chamber data of Council site in 2016 2016-11-25
8 [KOPRI-KPDC-00000684]CO2 auto-chamber data of Council site in 2012 2016-11-25
9 [KOPRI-KPDC-00000689]CO2 manual chamber data of Council site in 2012 2016-11-25
10 [KOPRI-KPDC-00000685]CO2 auto-chamber data of Council site in 2014 2016-11-25
11 [KOPRI-KPDC-00000682]CO2 auto-chamber data of Council site in 2010 2016-11-25
12 [KOPRI-KPDC-00000690]CO2 manual chamber data of Council site in 2013 2016-11-25
13 [KOPRI-KPDC-00000691]CO2 manual chamber data of Council site in 2014 2016-11-25
14 [KOPRI-KPDC-00000688]CO2 manual chamber data of Council site in 2011 2016-11-25
15 [KOPRI-KPDC-00000678]Eddy covariance data of Alaska permafrost site in 2015 2016-11-22
16 [KOPRI-KPDC-00000677]Eddy covariance data of Alaska permafrost site in 2016 2016-11-22
17 [KOPRI-KPDC-00000676]Permafrost core samples in Council, Alaska, USA in 2016 2016-11-18
18 [KOPRI-KPDC-00000674]Air temperature and air humidity data collected from climate manipulation plots in Cambridge Bay, Canada in 2016 2016-11-18
19 [KOPRI-KPDC-00000675]Soil moisture and soil temperature data collected from climate manipulation plots in Cambridge Bay, Canada in 2016 2016-11-18
20 [KOPRI-PAMC-00020813]PAMC 26832 2015-12-28
21 [KOPRI-PAMC-00020812]PAMC 26830 2015-12-28
22 [KOPRI-PAMC-00020811]PAMC 26829 2015-12-28
23 [KOPRI-PAMC-00020810]PAMC 26828 2015-12-28
24 [KOPRI-PAMC-00020809]PAMC 26827 2015-12-28
25 [KOPRI-PAMC-00020808]PAMC 26826 2015-12-28
26 [KOPRI-PAMC-00020807]PAMC 26825 2015-12-28
27 [KOPRI-PAMC-00020806]PAMC 26824 2015-12-28
28 [KOPRI-PAMC-00020805]PAMC 26823 2015-12-28
29 [KOPRI-PAMC-00020804]PAMC 26822 2015-12-28
30 [KOPRI-PAMC-00020803]PAMC 26821 2015-12-28
31 [KOPRI-PAMC-00020802]PAMC 26820 2015-12-28
32 [KOPRI-PAMC-00020801]PAMC 26819 2015-12-28
33 [KOPRI-PAMC-00020800]PAMC 26818 2015-12-28
34 [KOPRI-PAMC-00020799]PAMC 26817 2015-12-28
35 [KOPRI-PAMC-00020798]PAMC 26816 2015-12-28
36 [KOPRI-PAMC-00020797]PAMC 26815 2015-12-28
37 [KOPRI-PAMC-00020796]PAMC 26814 2015-12-28
38 [KOPRI-PAMC-00020795]PAMC 26813 2015-12-28
39 [KOPRI-PAMC-00020794]PAMC 26812 2015-12-28
40 [KOPRI-PAMC-00020793]PAMC 26811 2015-12-28
41 [KOPRI-PAMC-00020792]PAMC 26810 2015-12-28
42 [KOPRI-PAMC-00020791]PAMC 26809 2015-12-28
43 [KOPRI-PAMC-00020790]PAMC 26808 2015-12-28
44 [KOPRI-PAMC-00020789]PAMC 26807 2015-12-28
45 [KOPRI-PAMC-00020788]PAMC 26806 2015-12-28
46 [KOPRI-PAMC-00020787]PAMC 26805 2015-12-28
47 [KOPRI-PAMC-00020786]PAMC 26804 2015-12-28
48 [KOPRI-PAMC-00020785]PAMC 26803 2015-12-28
49 [KOPRI-PAMC-00020784]PAMC 26802 2015-12-28
50 [KOPRI-PAMC-00020783]PAMC 26801 2015-12-28
51 [KOPRI-PAMC-00020782]PAMC 26800 2015-12-28
52 [KOPRI-PAMC-00020781]PAMC 26799 2015-12-28
53 [KOPRI-PAMC-00020780]PAMC 26798 2015-12-28
54 [KOPRI-PAMC-00020779]PAMC 26797 2015-12-28
55 [KOPRI-PAMC-00020778]PAMC 26796 2015-12-28
56 [KOPRI-PAMC-00020777]PAMC 26795 2015-12-28
57 [KOPRI-PAMC-00020776]PAMC 26794 2015-12-28
58 [KOPRI-PAMC-00020775]PAMC 26793 2015-12-28
59 [KOPRI-PAMC-00020774]PAMC 26792 2015-12-28
60 [KOPRI-PAMC-00020773]PAMC 26791 2015-12-28
61 [KOPRI-PAMC-00020772]PAMC 26790 2015-12-28
62 [KOPRI-PAMC-00020771]PAMC 26789 2015-12-28
63 [KOPRI-PAMC-00020770]PAMC 26788 2015-12-28
64 [KOPRI-KPDC-00000587]Eddy covariance data of Alaska permafrost site in 2014 2015-12-23
65 [KOPRI-KPDC-00000588]Methane flux data of Alaska permafrost site in 2014 2015-12-23
66 [KOPRI-KPDC-00000726]NEEM project_ice core 2014-10-10
67 [KOPRI-KPDC-00000441]Distribution of pH in the Northwestern Pacific in summer 2012. 2013-08-30
68 [KOPRI-KPDC-00000439]Concentration of atmospheric and oceanic nitrous oxide : 2012 The Northwest Pacific Transect 2013-08-29
69 [KOPRI-KPDC-00000437]Concentration of atmospheric and oceanic carbon dioxide: 2010 Chuckchi Sea 2013-08-28
70 [KOPRI-KPDC-00000438]Concentration of atmospheric and oceanic carbon dioxide: 2010 Northwest Pacific Transect 2013-08-28
71 [KOPRI-KPDC-00000435]Distribution of total alkalinity (TA) in the Northwestern Pacific in summer 2012. 2013-08-26
72 [KOPRI-KPDC-00000436]Distribution of total alkalinity in the Chukchi Sea of the Arctic Ocean in summer 2012. 2013-08-26
73 [KOPRI-KPDC-00000434]Distribution of total alkalinity in the Chukchi Sea of the Arctic Ocean in summer 2011. 2013-08-26
74 [KOPRI-KPDC-00000433]Distribution of pH in the Chukchi Sea of the Arctic Ocean in summer 2012. 2013-08-26
75 [KOPRI-KPDC-00000430]Concentration of atmospheric ozone: 2012 Northwestern Pacific Oceans Transect 2013-08-26
76 [KOPRI-KPDC-00000429]Concentration of atmospheric ozone: 2012 Arctic Ocean 2013-08-26
77 [KOPRI-KPDC-00000432]A study on the distribution characteristics of pH in the Amundsen Sea in 2012. 2013-08-26
78 [KOPRI-KPDC-00000428]Concentration of atmospheric ozone: 2012 Northwestern Pacific Oceans Transect 2013-08-26
79 [KOPRI-KPDC-00000427]Concentration of atmospheric ozone: 2011 Northwestern Pacific Oceans Transect 2013-08-26
80 [KOPRI-KPDC-00000424]Concentration of atmospheric ozone: 2010 Northwestern Pacific Transect 2013-08-23
81 [KOPRI-KPDC-00000425]Concentration of atmospheric ozone: 2011 Northwestern Pacific Oceans Transect 2013-08-23
82 [KOPRI-KPDC-00000423]Concentration of atmospheric ozone: 2010 Chuckchi Sea 2013-08-23
83 [KOPRI-KPDC-00000426]Concentration of atmospheric ozone: 2011 Chuckchi Sea 2013-08-23
84 [KOPRI-KPDC-00000420]Concentration of atmospheric ozone: 2010 Northwestern Pacific Oceans Transect 2013-08-21
85 [KOPRI-KPDC-00000422]Concentration of atmospheric ozone: 2010 Northwestern Pacific Transect 2013-08-21
86 [KOPRI-KPDC-00000421]Concentration of atmospheric ozone: 2010 Chuckchi Sea 2013-08-21
87 [KOPRI-KPDC-00000401]Concentrations of atmospheric NOx: 2012 Northwestern Pacific Transect 2013-08-08
88 [KOPRI-KPDC-00000402]Concentrations of atmospheric NOx: 2012 Arctic sea 2013-08-08
89 [KOPRI-KPDC-00000398]Concentration of atmospheric and oceanic nitrous oxide : 2012 The Arctic Ocean 2013-08-07
90 [KOPRI-KPDC-00000397]Concentration of atmospheric nitrous oxide : 2010 The Chuckchi Sea 2013-08-06
91 [KOPRI-KPDC-00000386]Concentrations of atmospheric and oceanic molecular H2: 2012 The Northwest Pacific transect 2013-07-24
92 [KOPRI-KPDC-00000392]Concentration of atmospheric mercury: 2012 Arctic sea 2013-07-24
93 [KOPRI-KPDC-00000393]Concentration of atmospheric mercury: 2012 Northwestern Pacific Transect 2013-07-24
94 [KOPRI-KPDC-00000375]Distribution of dissolved inorganic carbon (DIC) in the Northwestern Pacific in summer 2012. 2013-07-11
95 [KOPRI-KPDC-00000376]Distribution of dissolved inorganic carbon (DIC) in the Chukchi Sea of the Arctic Ocean in summer 2012. 2013-07-11
96 [KOPRI-KPDC-00000374]Distribution of dissolved inorganic carbon (DIC) in the Chukchi Sea of the Arctic Ocean in summer 2011. 2013-07-10
97 [KOPRI-KPDC-00000373]Distribution of dissolved inorganic carbon (DIC) in the Chukchi Sea of the Arctic Ocean in summer 2010 2013-07-10
98 [KOPRI-KPDC-00000369]Concentration of atmospheric and oceanic carbon dioxide: 2012 Arctic Ocean 2013-07-04
99 [KOPRI-KPDC-00000367]Concentration of atmospheric and oceanic carbon dioxide: 2011 Chuckchi Sea 2013-07-04
100 [KOPRI-KPDC-00000368]Concentration of atmospheric and oceanic carbon dioxide: 2012 Northwest Pacific Transect 2013-07-04